Time;durP1;ratioP1;P1;durP2;ratioP2;P2;SDS_P1;SDS_P2;PMS_P1;PMS_P2;Temp;Humidity;BMP_temperature;BMP_pressure;BME280_temperature;BME280_humidity;BME280_pressure;Samples;Min_cycle;Max_cycle;Signal;HPM_P1;HPM_P2
2022/12/26 00:00:15;;;;;;;22.33;12.50;;;;;;;;;;5031538;28;20268;-75
2022/12/26 00:02:40;;;;;;;27.57;13.63;;;;;;;;;;5029953;28;20249;-75
2022/12/26 00:05:05;;;;;;;24.73;12.50;;;;;;;;;;5031701;28;20634;-75
2022/12/26 00:07:30;;;;;;;24.10;13.00;;;;;;;;;;5033285;28;20190;-75
2022/12/26 00:09:56;;;;;;;23.97;12.83;;;;;;;;;;5031600;28;20171;-75
2022/12/26 00:14:48;;;;;;;27.90;14.13;;;;;;;;;;5036634;28;20236;-82
2022/12/26 00:17:13;;;;;;;24.93;13.90;;;;;;;;;;5035499;28;20209;-83
2022/12/26 00:19:39;;;;;;;29.13;15.13;;;;;;;;;;5035339;28;21596;-83
2022/12/26 00:22:04;;;;;;;28.60;16.40;;;;;;;;;;5036623;28;20170;-83
2022/12/26 00:24:29;;;;;;;27.23;15.37;;;;;;;;;;5035357;28;20210;-83
2022/12/26 00:26:54;;;;;;;26.17;13.97;;;;;;;;;;5033508;28;20193;-84
2022/12/26 00:29:19;;;;;;;29.37;15.07;;;;;;;;;;5032059;28;20182;-84
2022/12/26 00:31:45;;;;;;;26.07;14.77;;;;;;;;;;5029703;28;20261;-83
2022/12/26 00:34:10;;;;;;;28.87;15.23;;;;;;;;;;5032767;28;20240;-83
2022/12/26 00:36:36;;;;;;;31.83;16.47;;;;;;;;;;5033145;28;20182;-83
2022/12/26 00:39:02;;;;;;;33.37;16.07;;;;;;;;;;5038358;28;20178;-83
2022/12/26 00:41:28;;;;;;;31.10;16.57;;;;;;;;;;5032908;28;20194;-83
2022/12/26 00:43:54;;;;;;;33.67;16.73;;;;;;;;;;5042382;28;20671;-83
2022/12/26 00:46:20;;;;;;;31.43;17.43;;;;;;;;;;5045384;28;20246;-83
2022/12/26 00:48:45;;;;;;;32.80;15.93;;;;;;;;;;5038815;28;20206;-83
2022/12/26 00:51:10;;;;;;;31.90;16.40;;;;;;;;;;5033337;28;20193;-83
2022/12/26 00:53:36;;;;;;;31.93;16.90;;;;;;;;;;5048880;28;20301;-83
2022/12/26 00:56:01;;;;;;;31.97;16.80;;;;;;;;;;5043688;28;20632;-84
2022/12/26 00:58:26;;;;;;;30.17;16.53;;;;;;;;;;5033423;28;20232;-84
2022/12/26 01:00:52;;;;;;;34.87;19.30;;;;;;;;;;5035044;28;20197;-84
2022/12/26 01:03:18;;;;;;;33.87;16.83;;;;;;;;;;5042256;28;20194;-84
2022/12/26 01:05:47;;;;;;;35.23;18.13;;;;;;;;;;5035906;28;20660;-84
2022/12/26 01:08:12;;;;;;;34.47;18.97;;;;;;;;;;5039708;28;20202;-85
2022/12/26 01:10:41;;;;;;;34.00;18.27;;;;;;;;;;5031482;28;20273;-84
2022/12/26 01:13:07;;;;;;;35.37;18.90;;;;;;;;;;5030888;28;20241;-83
2022/12/26 01:15:32;;;;;;;37.57;18.67;;;;;;;;;;5030801;28;20202;-84
2022/12/26 01:17:58;;;;;;;36.97;18.97;;;;;;;;;;5033459;28;20186;-84
2022/12/26 01:20:24;;;;;;;35.03;19.37;;;;;;;;;;5045248;28;20189;-83
2022/12/26 01:22:49;;;;;;;36.80;19.70;;;;;;;;;;5032024;28;20198;-83
2022/12/26 01:25:14;;;;;;;34.83;19.23;;;;;;;;;;5034571;28;20237;-83
2022/12/26 01:27:39;;;;;;;34.27;18.83;;;;;;;;;;5027425;28;20618;-84
2022/12/26 01:30:05;;;;;;;36.57;20.67;;;;;;;;;;5030520;28;20273;-83
2022/12/26 01:32:30;;;;;;;33.67;19.40;;;;;;;;;;5032377;28;20611;-83
2022/12/26 01:34:55;;;;;;;33.27;18.40;;;;;;;;;;5034493;28;20668;-83
2022/12/26 01:37:24;;;;;;;33.03;18.70;;;;;;;;;;5037464;28;20626;-83
2022/12/26 01:39:50;;;;;;;36.73;20.00;;;;;;;;;;5035409;28;20254;-83
2022/12/26 01:42:16;;;;;;;32.97;18.57;;;;;;;;;;5036140;28;20706;-82
2022/12/26 01:44:55;;;;;;;34.67;18.70;;;;;;;;;;5033421;28;20245;-83
2022/12/26 01:47:22;;;;;;;33.83;18.30;;;;;;;;;;5030060;28;20648;-83
2022/12/26 01:49:49;;;;;;;31.67;18.97;;;;;;;;;;5036375;28;20186;-83
2022/12/26 01:52:17;;;;;;;31.03;18.90;;;;;;;;;;5026116;28;20304;-83
2022/12/26 01:54:44;;;;;;;34.10;18.20;;;;;;;;;;5040733;28;20276;-83
2022/12/26 01:57:16;;;;;;;32.43;18.80;;;;;;;;;;5037257;28;20186;-83
2022/12/26 01:59:41;;;;;;;32.70;18.93;;;;;;;;;;5038070;28;20186;-84
2022/12/26 02:02:07;;;;;;;30.23;18.10;;;;;;;;;;5034046;28;20244;-83
2022/12/26 02:07:19;;;;;;;29.90;17.87;;;;;;;;;;5035511;28;20185;-82
2022/12/26 02:09:44;;;;;;;31.47;17.47;;;;;;;;;;5029146;28;20174;-83
2022/12/26 02:12:09;;;;;;;27.80;17.50;;;;;;;;;;5035450;28;20191;-83
2022/12/26 02:14:35;;;;;;;30.07;16.93;;;;;;;;;;5035199;28;20264;-82
2022/12/26 02:17:01;;;;;;;33.40;18.87;;;;;;;;;;5033220;28;20272;-80
2022/12/26 02:19:46;;;;;;;31.17;17.27;;;;;;;;;;5033987;28;20210;-83
2022/12/26 02:22:24;;;;;;;27.97;17.93;;;;;;;;;;5031177;28;20178;-82
2022/12/26 02:24:57;;;;;;;26.67;16.83;;;;;;;;;;5034005;28;20695;-82
2022/12/26 02:27:29;;;;;;;28.83;17.87;;;;;;;;;;5029721;28;20174;-83
2022/12/26 02:29:56;;;;;;;30.67;19.20;;;;;;;;;;5036258;28;20201;-81
2022/12/26 02:32:35;;;;;;;28.53;18.10;;;;;;;;;;5031741;28;20245;-84
2022/12/26 02:35:20;;;;;;;25.47;17.40;;;;;;;;;;5034279;28;20268;-83
2022/12/26 02:37:45;;;;;;;30.63;17.97;;;;;;;;;;5033197;28;20185;-83
2022/12/26 02:40:28;;;;;;;28.87;17.73;;;;;;;;;;5035138;28;20548;-82
2022/12/26 02:42:54;;;;;;;27.17;18.03;;;;;;;;;;5033058;28;20206;-83
2022/12/26 02:48:13;;;;;;;26.10;17.30;;;;;;;;;;5032091;28;20254;-83
2022/12/26 03:18:46;;;;;;;24.97;17.83;;;;;;;;;;5054802;28;20186;-82
2022/12/26 03:21:13;;;;;;;27.90;17.57;;;;;;;;;;5052772;28;20182;-82
2022/12/26 03:23:39;;;;;;;27.77;19.70;;;;;;;;;;5050856;28;20201;-82
2022/12/26 03:30:47;;;;;;;27.17;17.93;;;;;;;;;;5056872;28;20189;-82
2022/12/26 03:31:37;;;;;;;28.33;17.77;;;;;;;;;;5051465;28;20184;-82
2022/12/26 03:34:18;;;;;;;26.57;17.27;;;;;;;;;;5053483;28;20205;-81
2022/12/26 03:36:52;;;;;;;28.57;17.87;;;;;;;;;;5054466;28;20213;-82
2022/12/26 04:19:22;;;;;;;25.10;17.27;;;;;;;;;;5056302;28;20178;-82
2022/12/26 04:44:01;;;;;;;16.07;10.00;;;;;;;;;;5043267;28;20200;-83
2022/12/26 04:46:27;;;;;;;15.87;11.50;;;;;;;;;;5043575;28;20178;-82
2022/12/26 04:51:37;;;;;;;19.20;11.30;;;;;;;;;;5042238;28;20268;-83
2022/12/26 04:54:03;;;;;;;18.43;11.03;;;;;;;;;;5042044;28;20640;-83
2022/12/26 04:56:28;;;;;;;16.40;10.43;;;;;;;;;;5042406;28;20181;-82
2022/12/26 04:58:53;;;;;;;20.30;13.27;;;;;;;;;;5038930;28;20565;-82
2022/12/26 05:09:33;;;;;;;20.23;12.20;;;;;;;;;;5041610;28;20194;-82
2022/12/26 05:11:59;;;;;;;19.17;11.33;;;;;;;;;;5044372;28;20189;-82
2022/12/26 05:14:24;;;;;;;19.73;11.63;;;;;;;;;;5040786;28;20222;-82
2022/12/26 05:30:29;;;;;;;16.90;9.00;;;;;;;;;;5038458;28;20185;-82
2022/12/26 05:35:38;;;;;;;14.17;8.27;;;;;;;;;;5041427;28;20186;-82
2022/12/26 05:38:04;;;;;;;11.93;7.53;;;;;;;;;;5042971;28;20413;-83
2022/12/26 05:40:29;;;;;;;10.33;7.00;;;;;;;;;;5037697;28;20197;-83
2022/12/26 05:42:54;;;;;;;12.63;8.10;;;;;;;;;;5043020;28;20210;-83
2022/12/26 05:45:19;;;;;;;13.40;7.70;;;;;;;;;;5042041;28;20541;-82
2022/12/26 05:47:45;;;;;;;11.57;7.90;;;;;;;;;;5041839;28;20213;-82
2022/12/26 05:50:10;;;;;;;11.87;7.77;;;;;;;;;;5042785;28;20676;-82
2022/12/26 05:52:35;;;;;;;12.80;7.63;;;;;;;;;;5044550;28;20747;-82
2022/12/26 05:55:00;;;;;;;12.07;7.57;;;;;;;;;;5043032;28;20241;-82
2022/12/26 05:57:26;;;;;;;11.03;6.87;;;;;;;;;;5045319;28;20243;-82
2022/12/26 05:59:52;;;;;;;11.63;6.63;;;;;;;;;;5040701;28;20175;-82
2022/12/26 06:02:17;;;;;;;11.23;6.60;;;;;;;;;;5049829;28;20563;-83
2022/12/26 06:04:42;;;;;;;9.20;6.43;;;;;;;;;;5034269;28;20218;-83
2022/12/26 06:07:07;;;;;;;11.07;6.93;;;;;;;;;;5041753;28;20171;-82
2022/12/26 06:09:32;;;;;;;9.50;6.20;;;;;;;;;;5042396;28;20178;-83
2022/12/26 06:11:58;;;;;;;9.87;6.43;;;;;;;;;;5044265;28;20214;-82
2022/12/26 06:14:23;;;;;;;10.33;6.33;;;;;;;;;;5037471;28;20223;-82
2022/12/26 06:16:48;;;;;;;12.53;5.87;;;;;;;;;;5037201;28;20179;-82
2022/12/26 06:19:13;;;;;;;9.00;5.97;;;;;;;;;;5042793;28;20285;-82
2022/12/26 06:21:38;;;;;;;9.27;5.57;;;;;;;;;;5035838;28;20265;-82
2022/12/26 06:24:04;;;;;;;11.70;6.67;;;;;;;;;;5037757;28;20204;-82
2022/12/26 06:26:29;;;;;;;10.87;6.77;;;;;;;;;;5053821;28;20683;-82
2022/12/26 06:28:54;;;;;;;9.37;6.17;;;;;;;;;;5046820;28;20200;-83
2022/12/26 06:31:21;;;;;;;9.90;5.57;;;;;;;;;;5033308;28;20603;-83
2022/12/26 06:33:47;;;;;;;9.20;6.47;;;;;;;;;;5037263;28;20221;-83
2022/12/26 06:36:14;;;;;;;11.33;6.13;;;;;;;;;;5036787;28;20178;-83
2022/12/26 06:38:40;;;;;;;14.70;6.77;;;;;;;;;;5045295;28;20515;-83
2022/12/26 06:41:09;;;;;;;9.03;5.80;;;;;;;;;;5040339;28;20244;-82
2022/12/26 06:43:34;;;;;;;10.17;6.93;;;;;;;;;;5036081;28;20259;-82
2022/12/26 06:46:01;;;;;;;10.30;5.90;;;;;;;;;;5035780;28;20202;-82
2022/12/26 06:48:26;;;;;;;9.17;5.23;;;;;;;;;;5039149;28;20166;-82
2022/12/26 06:50:53;;;;;;;12.50;5.77;;;;;;;;;;5035856;28;20170;-82
2022/12/26 06:53:19;;;;;;;7.50;5.60;;;;;;;;;;5039627;28;20222;-82
2022/12/26 06:55:44;;;;;;;9.53;5.77;;;;;;;;;;5038174;28;20178;-82
2022/12/26 06:58:09;;;;;;;6.60;5.10;;;;;;;;;;5043835;28;20236;-81
2022/12/26 07:00:35;;;;;;;9.13;6.00;;;;;;;;;;5033768;28;20190;-82
2022/12/26 07:03:00;;;;;;;7.47;4.73;;;;;;;;;;5037856;28;20505;-82
2022/12/26 07:05:25;;;;;;;7.50;5.47;;;;;;;;;;5038105;28;20481;-82
2022/12/26 07:07:51;;;;;;;11.87;5.33;;;;;;;;;;5034889;28;20282;-82
2022/12/26 07:10:16;;;;;;;8.97;5.27;;;;;;;;;;5034649;28;20175;-82
2022/12/26 07:12:41;;;;;;;7.20;5.23;;;;;;;;;;5034829;28;20196;-82
2022/12/26 07:15:08;;;;;;;6.70;4.67;;;;;;;;;;5034733;28;20185;-82
2022/12/26 07:17:34;;;;;;;7.30;4.50;;;;;;;;;;5036288;28;20185;-82
2022/12/26 07:19:59;;;;;;;6.30;5.53;;;;;;;;;;5034650;28;20174;-81
2022/12/26 07:22:24;;;;;;;10.77;4.23;;;;;;;;;;5032485;28;20182;-82
2022/12/26 07:24:49;;;;;;;10.60;4.80;;;;;;;;;;5034813;28;20210;-82
2022/12/26 07:27:15;;;;;;;6.47;4.07;;;;;;;;;;5030840;28;20175;-81
2022/12/26 07:29:40;;;;;;;9.87;4.30;;;;;;;;;;5038416;28;20190;-81
2022/12/26 07:32:05;;;;;;;5.10;4.40;;;;;;;;;;5035584;28;20615;-82
2022/12/26 07:34:30;;;;;;;6.07;3.70;;;;;;;;;;5035220;28;20198;-81
2022/12/26 07:36:55;;;;;;;8.13;4.30;;;;;;;;;;5036231;28;20543;-81
2022/12/26 07:39:21;;;;;;;5.10;3.90;;;;;;;;;;5035645;28;20209;-82
2022/12/26 07:41:58;;;;;;;5.67;4.17;;;;;;;;;;5032048;28;20213;-82
2022/12/26 07:44:24;;;;;;;6.67;3.87;;;;;;;;;;5035407;28;20194;-82
2022/12/26 07:46:49;;;;;;;8.63;4.33;;;;;;;;;;5034386;28;20182;-82
2022/12/26 07:49:14;;;;;;;5.73;4.10;;;;;;;;;;5034754;28;20220;-82
2022/12/26 07:51:40;;;;;;;7.60;3.97;;;;;;;;;;5032973;28;20193;-82
2022/12/26 07:54:05;;;;;;;8.87;4.00;;;;;;;;;;5035549;28;20186;-82
2022/12/26 07:56:31;;;;;;;8.30;3.80;;;;;;;;;;5036218;28;20252;-83
2022/12/26 07:58:56;;;;;;;5.50;3.57;;;;;;;;;;5037595;28;20173;-82
2022/12/26 08:01:21;;;;;;;6.17;3.30;;;;;;;;;;5033019;28;20269;-82
2022/12/26 08:03:47;;;;;;;8.27;4.83;;;;;;;;;;5036969;28;20197;-82
2022/12/26 08:06:12;;;;;;;6.40;5.00;;;;;;;;;;5036397;28;20680;-82
2022/12/26 08:08:38;;;;;;;6.13;3.50;;;;;;;;;;5035427;28;20187;-81
2022/12/26 08:11:04;;;;;;;7.13;3.33;;;;;;;;;;5034297;28;20248;-82
2022/12/26 08:13:30;;;;;;;8.63;3.50;;;;;;;;;;5033229;28;20445;-82
2022/12/26 08:15:56;;;;;;;13.87;3.63;;;;;;;;;;5035026;28;20228;-82
2022/12/26 08:18:21;;;;;;;7.10;4.00;;;;;;;;;;5041631;28;20181;-82
2022/12/26 08:20:46;;;;;;;5.57;3.57;;;;;;;;;;5036771;28;20269;-82
2022/12/26 08:23:11;;;;;;;8.07;3.60;;;;;;;;;;5040825;28;20220;-80
2022/12/26 08:25:37;;;;;;;9.27;3.13;;;;;;;;;;5037466;28;20321;-81
2022/12/26 08:28:02;;;;;;;6.20;3.73;;;;;;;;;;5041223;28;20174;-82
2022/12/26 08:30:27;;;;;;;6.63;3.60;;;;;;;;;;5038825;28;20562;-81
2022/12/26 08:32:52;;;;;;;6.90;3.83;;;;;;;;;;5038673;28;20274;-82
2022/12/26 08:35:17;;;;;;;6.03;3.10;;;;;;;;;;5041349;28;20194;-82
2022/12/26 08:37:43;;;;;;;6.00;3.47;;;;;;;;;;5037703;28;20182;-82
2022/12/26 08:40:08;;;;;;;6.33;3.47;;;;;;;;;;5041354;28;20175;-82
2022/12/26 08:42:33;;;;;;;5.60;3.23;;;;;;;;;;5038193;28;20237;-81
2022/12/26 08:44:58;;;;;;;6.30;3.60;;;;;;;;;;5038233;28;20202;-81
2022/12/26 08:47:26;;;;;;;5.27;3.27;;;;;;;;;;5036194;28;20186;-80
2022/12/26 08:49:51;;;;;;;6.70;4.23;;;;;;;;;;5037037;28;20189;-81
2022/12/26 08:52:16;;;;;;;8.00;3.13;;;;;;;;;;5040771;28;20175;-81
2022/12/26 08:54:41;;;;;;;6.03;3.10;;;;;;;;;;5041636;28;20179;-81
2022/12/26 08:57:07;;;;;;;5.50;3.00;;;;;;;;;;5037318;28;20273;-80
2022/12/26 08:59:32;;;;;;;10.47;3.23;;;;;;;;;;5040607;28;20182;-82
2022/12/26 09:01:57;;;;;;;7.33;3.30;;;;;;;;;;5033456;28;20218;-81
2022/12/26 09:04:22;;;;;;;5.60;3.63;;;;;;;;;;5038678;28;20222;-80
2022/12/26 09:06:47;;;;;;;5.37;3.10;;;;;;;;;;5036084;28;20603;-81
2022/12/26 09:09:13;;;;;;;8.03;3.63;;;;;;;;;;5036240;28;20229;-81
2022/12/26 09:11:38;;;;;;;8.13;3.40;;;;;;;;;;5035739;28;20656;-82
2022/12/26 09:14:04;;;;;;;9.37;4.00;;;;;;;;;;5037695;28;20202;-82
2022/12/26 09:16:32;;;;;;;7.13;3.57;;;;;;;;;;5042335;28;20209;-80
2022/12/26 09:18:58;;;;;;;9.63;3.57;;;;;;;;;;5044108;28;20175;-81
2022/12/26 09:21:24;;;;;;;7.47;4.20;;;;;;;;;;5036736;28;20566;-82
2022/12/26 09:23:49;;;;;;;7.70;3.17;;;;;;;;;;5036920;28;20262;-81
2022/12/26 09:26:16;;;;;;;5.50;3.43;;;;;;;;;;5035654;28;20679;-82
2022/12/26 09:28:42;;;;;;;6.57;3.23;;;;;;;;;;5033876;28;20171;-82
2022/12/26 09:31:12;;;;;;;6.33;3.27;;;;;;;;;;5035645;28;20171;-81
2022/12/26 09:33:37;;;;;;;8.03;3.70;;;;;;;;;;5035293;28;20675;-80
2022/12/26 09:36:07;;;;;;;9.73;2.67;;;;;;;;;;5035233;28;20178;-81
2022/12/26 09:38:33;;;;;;;9.00;2.50;;;;;;;;;;5036711;28;20187;-82
2022/12/26 09:40:58;;;;;;;8.90;2.10;;;;;;;;;;5038132;28;20267;-81
2022/12/26 09:43:54;;;;;;;11.00;3.40;;;;;;;;;;5034823;28;20198;-81
2022/12/26 09:46:32;;;;;;;8.27;2.17;;;;;;;;;;5030932;28;20704;-81
2022/12/26 09:49:01;;;;;;;10.30;2.47;;;;;;;;;;5035668;28;20174;-80
2022/12/26 09:51:28;;;;;;;5.77;2.00;;;;;;;;;;5035502;28;20189;-81
2022/12/26 09:53:53;;;;;;;11.70;2.83;;;;;;;;;;5036856;28;20606;-81
2022/12/26 09:56:20;;;;;;;9.93;1.80;;;;;;;;;;5037043;28;20216;-81
2022/12/26 09:58:51;;;;;;;7.23;2.00;;;;;;;;;;5036592;28;20238;-80
2022/12/26 10:01:19;;;;;;;9.43;2.03;;;;;;;;;;5043868;28;20197;-80
2022/12/26 10:03:48;;;;;;;5.50;1.67;;;;;;;;;;5043702;28;20274;-81
2022/12/26 10:06:18;;;;;;;9.60;1.70;;;;;;;;;;5034263;28;20206;-80
2022/12/26 10:08:53;;;;;;;4.80;1.70;;;;;;;;;;5028547;28;20595;-82
2022/12/26 10:11:24;;;;;;;7.70;1.40;;;;;;;;;;5031396;28;20258;-80
2022/12/26 10:13:54;;;;;;;7.97;1.67;;;;;;;;;;5036210;28;20206;-81
2022/12/26 10:16:23;;;;;;;5.67;1.13;;;;;;;;;;5033640;28;20182;-81
2022/12/26 10:18:51;;;;;;;9.03;1.93;;;;;;;;;;5034209;28;20543;-81
2022/12/26 10:21:26;;;;;;;5.00;1.53;;;;;;;;;;5032516;28;20667;-81
2022/12/26 10:23:54;;;;;;;7.77;1.63;;;;;;;;;;5031985;28;20197;-82
2022/12/26 10:26:26;;;;;;;7.87;1.70;;;;;;;;;;5033848;28;20374;-81
2022/12/26 10:28:57;;;;;;;5.97;2.37;;;;;;;;;;5032346;28;20593;-81
2022/12/26 10:31:31;;;;;;;8.17;1.77;;;;;;;;;;5032683;28;20229;-81
2022/12/26 10:34:06;;;;;;;9.27;2.47;;;;;;;;;;5033452;28;20708;-81
2022/12/26 10:36:33;;;;;;;8.83;1.90;;;;;;;;;;5031746;28;20655;-81
2022/12/26 10:38:59;;;;;;;5.57;2.00;;;;;;;;;;5035114;28;20174;-81
2022/12/26 10:41:40;;;;;;;4.93;1.60;;;;;;;;;;5031659;28;20194;-81
2022/12/26 10:44:08;;;;;;;4.80;1.40;;;;;;;;;;5031733;28;20224;-81
2022/12/26 10:46:42;;;;;;;10.70;3.00;;;;;;;;;;5030282;28;20601;-81
2022/12/26 10:49:10;;;;;;;6.60;1.67;;;;;;;;;;5023348;28;20284;-81
2022/12/26 10:51:36;;;;;;;8.17;1.40;;;;;;;;;;5031343;28;20190;-81
2022/12/26 10:54:02;;;;;;;6.77;2.03;;;;;;;;;;5034772;28;20217;-81
2022/12/26 10:56:27;;;;;;;3.57;0.90;;;;;;;;;;5032916;28;20577;-81
2022/12/26 10:59:00;;;;;;;5.60;1.47;;;;;;;;;;5020725;28;20277;-81
2022/12/26 11:01:25;;;;;;;2.53;0.90;;;;;;;;;;5030401;28;20186;-81
2022/12/26 11:04:09;;;;;;;5.20;0.83;;;;;;;;;;5042247;28;20213;-81
2022/12/26 11:06:39;;;;;;;4.53;1.00;;;;;;;;;;5030542;28;20215;-81
2022/12/26 11:09:05;;;;;;;5.20;1.17;;;;;;;;;;5034592;28;20269;-81
2022/12/26 11:11:47;;;;;;;2.77;1.50;;;;;;;;;;5033027;28;20213;-81
2022/12/26 11:14:31;;;;;;;4.47;1.37;;;;;;;;;;5031786;28;20718;-81
2022/12/26 11:16:57;;;;;;;8.50;1.03;;;;;;;;;;5024580;28;20209;-81
2022/12/26 11:19:34;;;;;;;4.53;1.13;;;;;;;;;;5031246;28;20198;-81
2022/12/26 11:22:13;;;;;;;3.67;1.40;;;;;;;;;;5031589;28;20181;-81
2022/12/26 11:24:38;;;;;;;9.10;1.30;;;;;;;;;;5029752;28;20332;-81
2022/12/26 11:27:17;;;;;;;6.70;2.30;;;;;;;;;;5033128;28;20217;-81
2022/12/26 11:29:42;;;;;;;9.00;1.53;;;;;;;;;;5054161;28;20204;-81
2022/12/26 11:32:17;;;;;;;7.27;1.53;;;;;;;;;;5026036;28;20248;-81
2022/12/26 11:34:46;;;;;;;2.87;1.10;;;;;;;;;;5031878;28;20273;-81
2022/12/26 11:37:22;;;;;;;7.10;1.23;;;;;;;;;;5032669;28;20220;-81
2022/12/26 11:39:49;;;;;;;8.70;1.87;;;;;;;;;;5024746;28;20177;-81
2022/12/26 11:42:19;;;;;;;7.07;1.83;;;;;;;;;;5029973;28;20201;-81
2022/12/26 11:44:45;;;;;;;13.17;1.90;;;;;;;;;;5039057;28;20636;-78
2022/12/26 11:47:10;;;;;;;7.50;1.40;;;;;;;;;;5034677;28;20222;-79
2022/12/26 11:49:54;;;;;;;4.90;1.50;;;;;;;;;;5028931;28;20241;-78
2022/12/26 11:52:41;;;;;;;2.43;1.23;;;;;;;;;;5026678;28;20269;-77
2022/12/26 11:55:21;;;;;;;5.80;2.93;;;;;;;;;;5031776;28;20182;-77
2022/12/26 11:58:00;;;;;;;5.83;2.30;;;;;;;;;;5024810;28;20174;-78
2022/12/26 12:00:26;;;;;;;4.17;1.50;;;;;;;;;;5022069;28;20189;-77
2022/12/26 12:02:51;;;;;;;1.60;1.00;;;;;;;;;;5030505;28;20198;-78
2022/12/26 12:05:28;;;;;;;3.80;1.00;;;;;;;;;;5031341;28;20621;-77
2022/12/26 12:08:01;;;;;;;1.83;1.20;;;;;;;;;;5051591;28;20280;-78
2022/12/26 12:10:43;;;;;;;5.23;1.33;;;;;;;;;;5031213;28;20225;-78
2022/12/26 12:13:19;;;;;;;5.50;2.57;;;;;;;;;;5041404;22;20194;-73
2022/12/26 12:16:03;;;;;;;5.03;1.30;;;;;;;;;;5029931;28;20182;-72
2022/12/26 12:18:34;;;;;;;4.30;1.40;;;;;;;;;;5025521;28;20182;-72
2022/12/26 12:21:05;;;;;;;6.90;1.40;;;;;;;;;;5027335;28;20260;-72
2022/12/26 12:23:39;;;;;;;1.77;0.93;;;;;;;;;;5024475;28;20220;-72
2022/12/26 12:26:08;;;;;;;6.07;1.27;;;;;;;;;;5021826;28;20301;-72
2022/12/26 12:28:52;;;;;;;10.47;1.63;;;;;;;;;;5028695;28;20237;-72
2022/12/26 12:31:29;;;;;;;6.77;1.10;;;;;;;;;;5026429;28;20217;-72
2022/12/26 12:34:21;;;;;;;1.80;0.83;;;;;;;;;;5029974;28;20241;-72
2022/12/26 12:36:49;;;;;;;8.93;1.10;;;;;;;;;;5027068;28;20390;-72
2022/12/26 12:39:16;;;;;;;2.17;1.10;;;;;;;;;;5029978;28;20190;-72
2022/12/26 12:41:57;;;;;;;5.90;1.30;;;;;;;;;;5024814;28;20183;-72
2022/12/26 12:44:31;;;;;;;6.33;1.70;;;;;;;;;;5028862;28;20205;-72
2022/12/26 12:47:14;;;;;;;5.50;2.03;;;;;;;;;;5028443;28;20193;-72
2022/12/26 12:49:58;;;;;;;2.63;1.77;;;;;;;;;;5029592;28;20170;-72
2022/12/26 12:52:42;;;;;;;4.17;1.43;;;;;;;;;;5025628;28;20179;-71
2022/12/26 12:55:20;;;;;;;3.60;1.20;;;;;;;;;;5022143;28;20197;-72
2022/12/26 12:57:54;;;;;;;5.97;1.33;;;;;;;;;;5027422;28;20260;-72
2022/12/26 13:00:22;;;;;;;4.50;1.30;;;;;;;;;;5027803;28;20650;-74
2022/12/26 13:02:54;;;;;;;4.30;1.23;;;;;;;;;;5030397;28;20182;-72
2022/12/26 13:05:25;;;;;;;3.50;1.03;;;;;;;;;;5036776;28;20201;-73
2022/12/26 13:07:59;;;;;;;3.47;1.40;;;;;;;;;;5037081;28;20183;-72
2022/12/26 13:10:33;;;;;;;2.47;0.77;;;;;;;;;;5036084;28;20711;-73
2022/12/26 13:13:01;;;;;;;6.43;0.90;;;;;;;;;;5031135;28;20174;-72
2022/12/26 13:15:32;;;;;;;3.13;1.00;;;;;;;;;;5032348;28;20214;-72
2022/12/26 13:18:00;;;;;;;3.13;1.50;;;;;;;;;;5031577;28;20221;-72
2022/12/26 13:20:44;;;;;;;5.37;1.30;;;;;;;;;;5038281;28;20268;-73
2022/12/26 13:26:07;;;;;;;5.57;2.10;;;;;;;;;;5028328;28;20213;-72
2022/12/26 13:28:35;;;;;;;2.57;0.87;;;;;;;;;;5031988;28;20265;-72
2022/12/26 13:31:00;;;;;;;3.73;1.67;;;;;;;;;;5026933;28;20702;-72
2022/12/26 13:33:26;;;;;;;3.90;1.13;;;;;;;;;;5028368;28;20285;-73
2022/12/26 13:35:58;;;;;;;4.17;1.00;;;;;;;;;;5037850;28;20182;-73
2022/12/26 13:38:25;;;;;;;1.20;1.10;;;;;;;;;;5035961;28;20229;-73
2022/12/26 13:43:58;;;;;;;4.73;1.03;;;;;;;;;;5035596;28;20311;-72
2022/12/26 13:46:43;;;;;;;5.00;1.10;;;;;;;;;;5031483;28;20214;-74
2022/12/26 13:49:23;;;;;;;3.97;1.00;;;;;;;;;;5032898;28;20178;-72
2022/12/26 13:51:49;;;;;;;2.03;0.70;;;;;;;;;;5027950;28;20205;-72
2022/12/26 13:54:15;;;;;;;5.23;1.03;;;;;;;;;;5025182;28;20206;-72
2022/12/26 13:56:40;;;;;;;3.43;0.90;;;;;;;;;;5034040;28;20225;-72
2022/12/26 13:59:05;;;;;;;4.57;1.57;;;;;;;;;;5023171;28;20189;-72
2022/12/26 14:01:47;;;;;;;5.40;1.20;;;;;;;;;;5031121;28;20293;-72
2022/12/26 14:04:31;;;;;;;3.27;0.87;;;;;;;;;;5033739;28;20236;-72
2022/12/26 14:06:59;;;;;;;7.30;1.17;;;;;;;;;;5026544;28;20182;-72
2022/12/26 14:09:33;;;;;;;5.23;1.30;;;;;;;;;;5031098;28;20179;-72
2022/12/26 14:11:58;;;;;;;3.97;1.20;;;;;;;;;;5028262;28;20170;-72
2022/12/26 14:14:23;;;;;;;5.73;1.30;;;;;;;;;;5032364;28;20214;-72
2022/12/26 14:16:51;;;;;;;3.40;0.90;;;;;;;;;;5032828;28;20185;-72
2022/12/26 14:19:35;;;;;;;7.00;1.30;;;;;;;;;;5031404;28;20272;-72
2022/12/26 14:22:10;;;;;;;3.20;1.57;;;;;;;;;;5029322;28;20178;-72
2022/12/26 14:24:43;;;;;;;3.53;1.10;;;;;;;;;;5029369;28;20208;-73
2022/12/26 14:27:20;;;;;;;6.70;1.10;;;;;;;;;;5031750;28;20177;-73
2022/12/26 14:29:54;;;;;;;2.43;0.70;;;;;;;;;;5029375;28;20170;-72
2022/12/26 14:32:23;;;;;;;5.63;1.40;;;;;;;;;;5031618;28;20183;-73
2022/12/26 14:35:00;;;;;;;2.40;0.97;;;;;;;;;;5030925;28;20260;-72
2022/12/26 14:37:41;;;;;;;3.00;0.70;;;;;;;;;;5028563;28;20558;-72
2022/12/26 14:40:26;;;;;;;3.93;1.10;;;;;;;;;;5030819;28;20182;-72
2022/12/26 14:43:09;;;;;;;3.80;1.00;;;;;;;;;;5029309;28;20198;-72
2022/12/26 14:45:35;;;;;;;3.23;0.90;;;;;;;;;;5032380;28;20552;-73
2022/12/26 14:48:01;;;;;;;3.63;1.80;;;;;;;;;;5032390;28;20174;-72
2022/12/26 14:50:37;;;;;;;3.40;1.80;;;;;;;;;;5028404;28;20209;-72
2022/12/26 14:53:20;;;;;;;5.20;1.67;;;;;;;;;;5031371;28;20659;-72
2022/12/26 14:55:55;;;;;;;8.53;2.53;;;;;;;;;;5029323;28;20604;-72
2022/12/26 14:58:39;;;;;;;6.13;2.10;;;;;;;;;;5030687;28;20746;-72
2022/12/26 15:01:19;;;;;;;5.13;1.30;;;;;;;;;;5029210;28;20182;-73
2022/12/26 15:03:44;;;;;;;1.93;1.23;;;;;;;;;;5028413;28;20541;-73
2022/12/26 15:06:22;;;;;;;8.23;2.20;;;;;;;;;;5034644;28;20235;-72
2022/12/26 15:08:50;;;;;;;5.50;2.57;;;;;;;;;;5023249;28;20174;-72
2022/12/26 15:11:30;;;;;;;6.60;1.33;;;;;;;;;;5030602;28;20265;-72
2022/12/26 15:14:01;;;;;;;6.67;1.60;;;;;;;;;;5024242;28;20221;-73
2022/12/26 15:16:45;;;;;;;2.93;1.00;;;;;;;;;;5025650;28;20252;-72
2022/12/26 15:19:13;;;;;;;6.07;1.63;;;;;;;;;;5029748;28;20186;-73
2022/12/26 15:21:57;;;;;;;4.37;1.33;;;;;;;;;;5027946;28;20701;-73
2022/12/26 15:24:25;;;;;;;7.20;3.20;;;;;;;;;;5026380;28;20201;-72
2022/12/26 15:26:53;;;;;;;5.33;0.90;;;;;;;;;;5027649;28;20690;-72
2022/12/26 15:29:28;;;;;;;5.60;1.27;;;;;;;;;;5028282;28;20178;-73
2022/12/26 15:32:05;;;;;;;5.80;1.10;;;;;;;;;;5027389;28;20312;-73
2022/12/26 15:34:42;;;;;;;5.50;1.70;;;;;;;;;;5028840;28;20676;-73
2022/12/26 15:37:17;;;;;;;6.43;1.60;;;;;;;;;;5029270;28;20201;-72
2022/12/26 15:39:49;;;;;;;5.10;1.90;;;;;;;;;;5032776;28;20209;-73
2022/12/26 15:42:33;;;;;;;3.80;1.60;;;;;;;;;;5034126;28;20193;-73
2022/12/26 15:45:13;;;;;;;7.23;2.20;;;;;;;;;;5029738;28;20210;-74
2022/12/26 15:47:39;;;;;;;3.13;1.50;;;;;;;;;;5030533;28;20257;-73
2022/12/26 15:50:07;;;;;;;6.87;1.63;;;;;;;;;;5028673;28;20286;-73
2022/12/26 15:52:32;;;;;;;7.40;3.07;;;;;;;;;;5032624;28;20185;-73
2022/12/26 15:54:57;;;;;;;6.63;2.63;;;;;;;;;;5028237;28;20198;-73
2022/12/26 15:57:29;;;;;;;6.27;1.80;;;;;;;;;;5029679;28;20182;-73
2022/12/26 16:00:00;;;;;;;6.40;2.07;;;;;;;;;;5029788;28;20248;-73
2022/12/26 16:02:25;;;;;;;13.53;4.40;;;;;;;;;;5034486;28;20559;-72
2022/12/26 16:05:10;;;;;;;15.37;9.47;;;;;;;;;;5027193;28;20197;-72
2022/12/26 16:07:42;;;;;;;46.17;24.83;;;;;;;;;;5030160;28;20178;-73
2022/12/26 16:10:23;;;;;;;82.10;42.20;;;;;;;;;;5030449;28;20173;-72
2022/12/26 16:13:07;;;;;;;20.40;11.07;;;;;;;;;;5020857;28;20261;-72
2022/12/26 16:15:32;;;;;;;20.70;10.60;;;;;;;;;;5026699;28;20188;-72
2022/12/26 16:18:14;;;;;;;47.10;25.30;;;;;;;;;;5028221;28;20183;-73
2022/12/26 16:23:25;;;;;;;48.90;22.30;;;;;;;;;;5033531;28;20686;-72
2022/12/26 16:25:51;;;;;;;83.03;43.43;;;;;;;;;;5033753;28;20206;-72
2022/12/26 16:28:22;;;;;;;50.50;23.30;;;;;;;;;;5031793;28;20186;-72
2022/12/26 16:30:47;;;;;;;33.63;16.67;;;;;;;;;;5031328;28;20186;-73
2022/12/26 16:33:13;;;;;;;10.80;6.73;;;;;;;;;;5025194;28;20199;-72
2022/12/26 16:35:40;;;;;;;16.00;9.37;;;;;;;;;;5031101;28;20542;-72
2022/12/26 16:38:11;;;;;;;20.47;12.07;;;;;;;;;;5027441;28;20175;-73
2022/12/26 16:40:41;;;;;;;26.67;15.40;;;;;;;;;;5032952;28;20174;-72
2022/12/26 16:43:12;;;;;;;10.07;6.67;;;;;;;;;;5022593;28;20213;-72
2022/12/26 16:45:37;;;;;;;5.37;2.70;;;;;;;;;;5022198;28;20218;-72
2022/12/26 16:48:04;;;;;;;5.80;2.30;;;;;;;;;;5025526;28;20179;-72
2022/12/26 16:50:31;;;;;;;8.20;2.57;;;;;;;;;;5023877;28;20218;-73
2022/12/26 16:53:09;;;;;;;5.10;2.10;;;;;;;;;;5022664;28;20187;-72
2022/12/26 16:55:59;;;;;;;4.77;1.67;;;;;;;;;;5022951;28;20186;-72
2022/12/26 16:58:30;;;;;;;7.67;2.33;;;;;;;;;;5013514;28;20206;-72
2022/12/26 17:00:58;;;;;;;6.83;2.00;;;;;;;;;;5033671;28;20280;-72
2022/12/26 17:03:43;;;;;;;4.07;1.80;;;;;;;;;;5034946;28;20213;-72
2022/12/26 17:06:14;;;;;;;4.47;2.30;;;;;;;;;;5031880;28;20214;-73